Terminal Aerodrome Forecast
Issued by NWS

Home | Current Version | Previous Version | Graphics & Text | Print | Product List | Glossary On
Versions: 1 2 3 4 5 6 7 8 9 10 11 12 13 14 15 16
000
FTUS42 KMHX 301700
TAFPGV
TAF
KPGV 301732Z 3018/3118 09005KT P6SM SCT040
     FM310200 12003KT P6SM FEW040
      TEMPO 3109/3112 5SM BR
      AMD LTD TO CLD VIS AND WIND=

USA.gov is the U.S. government's official web portal to all federal, state and local government web resources and services.